sensor_id;sensor_type;location;lat;lon;timestamp;temperature;humidity
76878;DHT22;65843;50.692;12.844;2023-11-21T00:00:02;11.00;74.80
76878;DHT22;65843;50.692;12.844;2023-11-21T00:01:04;11.00;74.80
76878;DHT22;65843;50.692;12.844;2023-11-21T00:02:05;11.00;74.70
76878;DHT22;65843;50.692;12.844;2023-11-21T00:03:06;11.00;74.70
76878;DHT22;65843;50.692;12.844;2023-11-21T00:04:07;11.00;74.70
76878;DHT22;65843;50.692;12.844;2023-11-21T00:05:09;11.00;74.80
76878;DHT22;65843;50.692;12.844;2023-11-21T00:06:10;11.00;74.70
76878;DHT22;65843;50.692;12.844;2023-11-21T00:07:11;11.00;74.70
76878;DHT22;65843;50.692;12.844;2023-11-21T00:08:12;11.00;74.70
76878;DHT22;65843;50.692;12.844;2023-11-21T00:09:13;11.00;74.80
76878;DHT22;65843;50.692;12.844;2023-11-21T00:10:16;11.00;74.80
76878;DHT22;65843;50.692;12.844;2023-11-21T00:11:17;10.90;74.70
76878;DHT22;65843;50.692;12.844;2023-11-21T00:12:17;10.90;74.90
76878;DHT22;65843;50.692;12.844;2023-11-21T00:13:18;10.90;74.80
76878;DHT22;65843;50.692;12.844;2023-11-21T00:14:19;10.90;74.90
76878;DHT22;65843;50.692;12.844;2023-11-21T00:15:20;10.90;75.00
76878;DHT22;65843;50.692;12.844;2023-11-21T00:16:22;10.90;74.90
76878;DHT22;65843;50.692;12.844;2023-11-21T00:17:24;10.90;75.00
76878;DHT22;65843;50.692;12.844;2023-11-21T00:18:25;10.90;75.00
76878;DHT22;65843;50.692;12.844;2023-11-21T00:19:26;10.90;74.90
76878;DHT22;65843;50.692;12.844;2023-11-21T00:20:27;10.90;75.00
76878;DHT22;65843;50.692;12.844;2023-11-21T00:21:28;10.90;75.10
76878;DHT22;65843;50.692;12.844;2023-11-21T00:22:29;10.90;75.10
76878;DHT22;65843;50.692;12.844;2023-11-21T00:23:30;10.90;75.00
76878;DHT22;65843;50.692;12.844;2023-11-21T00:24:30;10.90;75.00
76878;DHT22;65843;50.692;12.844;2023-11-21T00:25:32;10.90;75.00
76878;DHT22;65843;50.692;12.844;2023-11-21T00:26:33;10.90;75.00
76878;DHT22;65843;50.692;12.844;2023-11-21T00:27:37;10.90;75.00
76878;DHT22;65843;50.692;12.844;2023-11-21T00:28:38;10.90;75.00
76878;DHT22;65843;50.692;12.844;2023-11-21T00:29:39;10.90;75.10
76878;DHT22;65843;50.692;12.844;2023-11-21T00:30:40;10.90;75.00
76878;DHT22;65843;50.692;12.844;2023-11-21T00:31:41;10.90;75.00
76878;DHT22;65843;50.692;12.844;2023-11-21T00:32:42;10.90;75.00
76878;DHT22;65843;50.692;12.844;2023-11-21T00:33:43;10.90;75.10
76878;DHT22;65843;50.692;12.844;2023-11-21T00:34:44;10.90;75.00
76878;DHT22;65843;50.692;12.844;2023-11-21T00:35:45;10.90;75.00
76878;DHT22;65843;50.692;12.844;2023-11-21T00:36:46;10.90;75.00
76878;DHT22;65843;50.692;12.844;2023-11-21T00:37:47;10.90;75.10
76878;DHT22;65843;50.692;12.844;2023-11-21T00:38:50;10.90;75.00
76878;DHT22;65843;50.692;12.844;2023-11-21T00:39:51;10.90;74.90
76878;DHT22;65843;50.692;12.844;2023-11-21T00:40:52;11.00;74.80
76878;DHT22;65843;50.692;12.844;2023-11-21T00:41:53;11.00;74.80
76878;DHT22;65843;50.692;12.844;2023-11-21T00:42:54;11.00;74.80
76878;DHT22;65843;50.692;12.844;2023-11-21T00:43:56;11.00;74.60
76878;DHT22;65843;50.692;12.844;2023-11-21T00:44:57;11.00;74.70
76878;DHT22;65843;50.692;12.844;2023-11-21T00:45:58;11.00;74.70
76878;DHT22;65843;50.692;12.844;2023-11-21T00:46:59;11.00;74.70
76878;DHT22;65843;50.692;12.844;2023-11-21T00:48:00;11.00;74.70
76878;DHT22;65843;50.692;12.844;2023-11-21T00:49:01;11.00;74.70
76878;DHT22;65843;50.692;12.844;2023-11-21T00:50:05;11.00;74.70
76878;DHT22;65843;50.692;12.844;2023-11-21T00:51:07;10.90;74.70
76878;DHT22;65843;50.692;12.844;2023-11-21T00:52:08;10.90;74.70
76878;DHT22;65843;50.692;12.844;2023-11-21T00:53:09;10.90;74.80
76878;DHT22;65843;50.692;12.844;2023-11-21T00:54:10;10.90;74.80
76878;DHT22;65843;50.692;12.844;2023-11-21T00:55:11;10.90;74.90
76878;DHT22;65843;50.692;12.844;2023-11-21T00:56:12;10.90;74.90
76878;DHT22;65843;50.692;12.844;2023-11-21T00:57:14;10.90;75.00
76878;DHT22;65843;50.692;12.844;2023-11-21T00:58:14;10.90;75.00
76878;DHT22;65843;50.692;12.844;2023-11-21T00:59:15;10.90;75.00
76878;DHT22;65843;50.692;12.844;2023-11-21T01:00:16;10.90;75.00
76878;DHT22;65843;50.692;12.844;2023-11-21T01:01:18;10.90;75.00
76878;DHT22;65843;50.692;12.844;2023-11-21T01:02:19;10.90;74.80
76878;DHT22;65843;50.692;12.844;2023-11-21T01:03:20;10.90;74.80
76878;DHT22;65843;50.692;12.844;2023-11-21T01:04:21;10.90;74.90
76878;DHT22;65843;50.692;12.844;2023-11-21T01:05:22;10.90;74.80
76878;DHT22;65843;50.692;12.844;2023-11-21T01:06:23;10.90;74.90
76878;DHT22;65843;50.692;12.844;2023-11-21T01:07:24;10.90;75.00
76878;DHT22;65843;50.692;12.844;2023-11-21T01:08:24;10.90;74.90
76878;DHT22;65843;50.692;12.844;2023-11-21T01:09:25;10.90;74.90
76878;DHT22;65843;50.692;12.844;2023-11-21T01:10:26;10.90;75.00
76878;DHT22;65843;50.692;12.844;2023-11-21T01:11:27;10.90;74.90
76878;DHT22;65843;50.692;12.844;2023-11-21T01:12:28;10.90;75.00
76878;DHT22;65843;50.692;12.844;2023-11-21T01:13:29;10.90;75.00
76878;DHT22;65843;50.692;12.844;2023-11-21T01:14:30;10.90;75.00
76878;DHT22;65843;50.692;12.844;2023-11-21T01:15:31;10.90;75.00
76878;DHT22;65843;50.692;12.844;2023-11-21T01:16:32;10.90;75.10
76878;DHT22;65843;50.692;12.844;2023-11-21T01:17:33;10.90;75.10
76878;DHT22;65843;50.692;12.844;2023-11-21T01:18:35;10.90;75.00
76878;DHT22;65843;50.692;12.844;2023-11-21T01:19:36;10.90;75.00
76878;DHT22;65843;50.692;12.844;2023-11-21T01:20:38;10.90;74.90
76878;DHT22;65843;50.692;12.844;2023-11-21T01:21:39;10.90;74.90
76878;DHT22;65843;50.692;12.844;2023-11-21T01:22:40;10.90;74.80
76878;DHT22;65843;50.692;12.844;2023-11-21T01:23:41;10.90;74.80
76878;DHT22;65843;50.692;12.844;2023-11-21T01:24:42;10.90;74.80
76878;DHT22;65843;50.692;12.844;2023-11-21T01:25:43;10.90;74.70
76878;DHT22;65843;50.692;12.844;2023-11-21T01:26:44;10.90;74.80
76878;DHT22;65843;50.692;12.844;2023-11-21T01:27:47;10.90;74.70
76878;DHT22;65843;50.692;12.844;2023-11-21T01:28:48;10.90;74.70
76878;DHT22;65843;50.692;12.844;2023-11-21T01:29:49;10.90;74.80
76878;DHT22;65843;50.692;12.844;2023-11-21T01:30:54;10.90;74.80
76878;DHT22;65843;50.692;12.844;2023-11-21T01:31:57;10.90;74.70
76878;DHT22;65843;50.692;12.844;2023-11-21T01:32:58;10.90;74.80
76878;DHT22;65843;50.692;12.844;2023-11-21T01:33:59;10.90;74.80
76878;DHT22;65843;50.692;12.844;2023-11-21T01:35:00;10.90;74.80
76878;DHT22;65843;50.692;12.844;2023-11-21T01:36:01;10.90;74.80
76878;DHT22;65843;50.692;12.844;2023-11-21T01:37:02;10.90;74.90
76878;DHT22;65843;50.692;12.844;2023-11-21T01:38:05;10.90;74.90
76878;DHT22;65843;50.692;12.844;2023-11-21T01:39:08;10.90;74.90
76878;DHT22;65843;50.692;12.844;2023-11-21T01:40:13;10.90;74.90
76878;DHT22;65843;50.692;12.844;2023-11-21T01:41:14;10.90;75.00
76878;DHT22;65843;50.692;12.844;2023-11-21T01:42:15;10.90;75.00
76878;DHT22;65843;50.692;12.844;2023-11-21T01:43:16;10.80;75.00
76878;DHT22;65843;50.692;12.844;2023-11-21T01:44:17;10.80;75.00
76878;DHT22;65843;50.692;12.844;2023-11-21T01:45:20;10.80;75.00
76878;DHT22;65843;50.692;12.844;2023-11-21T01:46:21;10.90;75.00
76878;DHT22;65843;50.692;12.844;2023-11-21T01:47:22;10.80;75.10
76878;DHT22;65843;50.692;12.844;2023-11-21T01:48:23;10.80;75.10
76878;DHT22;65843;50.692;12.844;2023-11-21T01:49:24;10.80;75.10
76878;DHT22;65843;50.692;12.844;2023-11-21T01:50:25;10.90;75.00
76878;DHT22;65843;50.692;12.844;2023-11-21T01:51:26;10.80;75.00
76878;DHT22;65843;50.692;12.844;2023-11-21T01:52:27;10.80;75.00
76878;DHT22;65843;50.692;12.844;2023-11-21T01:53:28;10.80;75.10
76878;DHT22;65843;50.692;12.844;2023-11-21T01:54:29;10.80;75.00
76878;DHT22;65843;50.692;12.844;2023-11-21T01:55:33;10.80;75.00
76878;DHT22;65843;50.692;12.844;2023-11-21T01:56:34;10.80;75.10
76878;DHT22;65843;50.692;12.844;2023-11-21T01:57:35;10.80;75.10
76878;DHT22;65843;50.692;12.844;2023-11-21T01:58:38;10.80;75.10
76878;DHT22;65843;50.692;12.844;2023-11-21T01:59:40;10.80;75.10
76878;DHT22;65843;50.692;12.844;2023-11-21T02:00:42;10.90;75.10
76878;DHT22;65843;50.692;12.844;2023-11-21T02:01:44;10.90;75.10
76878;DHT22;65843;50.692;12.844;2023-11-21T02:02:45;10.90;75.00
76878;DHT22;65843;50.692;12.844;2023-11-21T02:03:46;10.90;74.90
76878;DHT22;65843;50.692;12.844;2023-11-21T02:04:47;10.90;74.90
76878;DHT22;65843;50.692;12.844;2023-11-21T02:05:48;10.90;74.70
76878;DHT22;65843;50.692;12.844;2023-11-21T02:06:49;11.00;74.70
76878;DHT22;65843;50.692;12.844;2023-11-21T02:07:51;10.90;74.70
76878;DHT22;65843;50.692;12.844;2023-11-21T02:08:53;11.00;74.70
76878;DHT22;65843;50.692;12.844;2023-11-21T02:09:54;11.00;74.70
76878;DHT22;65843;50.692;12.844;2023-11-21T02:10:54;10.90;74.70
76878;DHT22;65843;50.692;12.844;2023-11-21T02:11:55;11.00;74.60
76878;DHT22;65843;50.692;12.844;2023-11-21T02:12:56;10.90;74.70
76878;DHT22;65843;50.692;12.844;2023-11-21T02:13:59;10.90;74.70
76878;DHT22;65843;50.692;12.844;2023-11-21T02:15:00;10.90;74.70
76878;DHT22;65843;50.692;12.844;2023-11-21T02:16:01;10.90;74.70
76878;DHT22;65843;50.692;12.844;2023-11-21T02:17:02;10.90;74.70
76878;DHT22;65843;50.692;12.844;2023-11-21T02:18:04;10.90;74.80
76878;DHT22;65843;50.692;12.844;2023-11-21T02:19:07;10.90;74.80
76878;DHT22;65843;50.692;12.844;2023-11-21T02:20:12;10.90;74.80
76878;DHT22;65843;50.692;12.844;2023-11-21T02:21:16;10.90;74.80
76878;DHT22;65843;50.692;12.844;2023-11-21T02:22:17;10.90;74.80
76878;DHT22;65843;50.692;12.844;2023-11-21T02:23:19;10.90;74.90
76878;DHT22;65843;50.692;12.844;2023-11-21T02:24:21;10.90;74.80
76878;DHT22;65843;50.692;12.844;2023-11-21T02:25:22;10.80;74.80
76878;DHT22;65843;50.692;12.844;2023-11-21T02:26:23;10.90;74.80
76878;DHT22;65843;50.692;12.844;2023-11-21T02:27:26;10.80;75.00
76878;DHT22;65843;50.692;12.844;2023-11-21T02:28:27;10.80;75.00
76878;DHT22;65843;50.692;12.844;2023-11-21T02:29:29;10.80;75.00
76878;DHT22;65843;50.692;12.844;2023-11-21T02:30:30;10.80;75.10
76878;DHT22;65843;50.692;12.844;2023-11-21T02:31:35;10.80;75.00
76878;DHT22;65843;50.692;12.844;2023-11-21T02:32:36;10.80;75.00
76878;DHT22;65843;50.692;12.844;2023-11-21T02:33:37;10.80;75.10
76878;DHT22;65843;50.692;12.844;2023-11-21T02:34:38;10.80;75.00
76878;DHT22;65843;50.692;12.844;2023-11-21T02:35:39;10.80;75.00
76878;DHT22;65843;50.692;12.844;2023-11-21T02:36:40;10.80;75.00
76878;DHT22;65843;50.692;12.844;2023-11-21T02:37:43;10.80;75.00
76878;DHT22;65843;50.692;12.844;2023-11-21T02:38:43;10.80;75.00
76878;DHT22;65843;50.692;12.844;2023-11-21T02:39:44;10.80;75.00
76878;DHT22;65843;50.692;12.844;2023-11-21T02:40:45;10.80;75.00
76878;DHT22;65843;50.692;12.844;2023-11-21T02:41:46;10.80;75.00
76878;DHT22;65843;50.692;12.844;2023-11-21T02:42:47;10.80;75.00
76878;DHT22;65843;50.692;12.844;2023-11-21T02:43:48;10.80;74.90
76878;DHT22;65843;50.692;12.844;2023-11-21T02:44:49;10.90;75.00
76878;DHT22;65843;50.692;12.844;2023-11-21T02:45:50;10.90;74.90
76878;DHT22;65843;50.692;12.844;2023-11-21T02:46:51;10.90;74.90
76878;DHT22;65843;50.692;12.844;2023-11-21T02:47:52;10.90;74.80
76878;DHT22;65843;50.692;12.844;2023-11-21T02:48:54;10.90;74.70
76878;DHT22;65843;50.692;12.844;2023-11-21T02:49:55;10.90;74.70
76878;DHT22;65843;50.692;12.844;2023-11-21T02:50:56;10.90;74.70
76878;DHT22;65843;50.692;12.844;2023-11-21T02:51:58;10.90;74.70
76878;DHT22;65843;50.692;12.844;2023-11-21T02:52:59;10.90;74.70
76878;DHT22;65843;50.692;12.844;2023-11-21T02:54:00;10.80;74.70
76878;DHT22;65843;50.692;12.844;2023-11-21T02:55:03;10.80;74.70
76878;DHT22;65843;50.692;12.844;2023-11-21T02:56:04;10.90;74.80
76878;DHT22;65843;50.692;12.844;2023-11-21T02:57:05;10.80;74.70
76878;DHT22;65843;50.692;12.844;2023-11-21T02:58:06;10.80;74.80
76878;DHT22;65843;50.692;12.844;2023-11-21T02:59:07;10.80;74.70
76878;DHT22;65843;50.692;12.844;2023-11-21T03:00:08;10.80;74.80
76878;DHT22;65843;50.692;12.844;2023-11-21T03:01:13;10.80;74.80
76878;DHT22;65843;50.692;12.844;2023-11-21T03:02:14;10.80;74.80
76878;DHT22;65843;50.692;12.844;2023-11-21T03:03:16;10.80;74.80
76878;DHT22;65843;50.692;12.844;2023-11-21T03:04:17;10.80;74.80
76878;DHT22;65843;50.692;12.844;2023-11-21T03:05:18;10.80;74.80
76878;DHT22;65843;50.692;12.844;2023-11-21T03:06:19;10.80;74.80
76878;DHT22;65843;50.692;12.844;2023-11-21T03:07:20;10.80;74.80
76878;DHT22;65843;50.692;12.844;2023-11-21T03:08:22;10.80;74.80
76878;DHT22;65843;50.692;12.844;2023-11-21T03:09:23;10.80;74.80
76878;DHT22;65843;50.692;12.844;2023-11-21T03:10:24;10.80;74.80
76878;DHT22;65843;50.692;12.844;2023-11-21T03:11:25;10.80;74.80
76878;DHT22;65843;50.692;12.844;2023-11-21T03:12:26;10.80;74.90
76878;DHT22;65843;50.692;12.844;2023-11-21T03:13:27;10.80;75.00
76878;DHT22;65843;50.692;12.844;2023-11-21T03:14:28;10.80;74.90
76878;DHT22;65843;50.692;12.844;2023-11-21T03:15:29;10.80;75.00
76878;DHT22;65843;50.692;12.844;2023-11-21T03:16:31;10.80;75.00
76878;DHT22;65843;50.692;12.844;2023-11-21T03:17:33;10.80;75.00
76878;DHT22;65843;50.692;12.844;2023-11-21T03:18:37;10.80;74.90
76878;DHT22;65843;50.692;12.844;2023-11-21T03:19:38;10.80;75.00
76878;DHT22;65843;50.692;12.844;2023-11-21T03:20:39;10.80;74.90
76878;DHT22;65843;50.692;12.844;2023-11-21T03:21:39;10.80;74.90
76878;DHT22;65843;50.692;12.844;2023-11-21T03:22:40;10.80;74.90
76878;DHT22;65843;50.692;12.844;2023-11-21T03:23:41;10.80;75.00
76878;DHT22;65843;50.692;12.844;2023-11-21T03:24:42;10.80;75.00
76878;DHT22;65843;50.692;12.844;2023-11-21T03:25:43;10.80;75.00
76878;DHT22;65843;50.692;12.844;2023-11-21T03:26:44;10.80;74.90
76878;DHT22;65843;50.692;12.844;2023-11-21T03:27:45;10.80;74.80
76878;DHT22;65843;50.692;12.844;2023-11-21T03:28:46;10.80;74.80
76878;DHT22;65843;50.692;12.844;2023-11-21T03:29:48;10.90;74.80
76878;DHT22;65843;50.692;12.844;2023-11-21T03:30:49;10.90;74.60
76878;DHT22;65843;50.692;12.844;2023-11-21T03:31:50;10.90;74.60
76878;DHT22;65843;50.692;12.844;2023-11-21T03:32:51;10.90;74.70
76878;DHT22;65843;50.692;12.844;2023-11-21T03:33:53;10.90;74.60
76878;DHT22;65843;50.692;12.844;2023-11-21T03:34:55;10.90;74.60
76878;DHT22;65843;50.692;12.844;2023-11-21T03:35:57;10.90;74.60
76878;DHT22;65843;50.692;12.844;2023-11-21T03:36:57;10.90;74.60
76878;DHT22;65843;50.692;12.844;2023-11-21T03:37:59;10.90;74.60
76878;DHT22;65843;50.692;12.844;2023-11-21T03:39:00;10.80;74.70
76878;DHT22;65843;50.692;12.844;2023-11-21T03:40:01;10.80;74.70
76878;DHT22;65843;50.692;12.844;2023-11-21T03:41:04;10.80;74.70
76878;DHT22;65843;50.692;12.844;2023-11-21T03:42:05;10.80;74.80
76878;DHT22;65843;50.692;12.844;2023-11-21T03:43:06;10.80;74.80
76878;DHT22;65843;50.692;12.844;2023-11-21T03:44:07;10.80;74.80
76878;DHT22;65843;50.692;12.844;2023-11-21T03:45:08;10.80;74.80
76878;DHT22;65843;50.692;12.844;2023-11-21T03:46:09;10.80;74.80
76878;DHT22;65843;50.692;12.844;2023-11-21T03:47:10;10.80;74.90
76878;DHT22;65843;50.692;12.844;2023-11-21T03:48:12;10.80;74.90
76878;DHT22;65843;50.692;12.844;2023-11-21T03:49:13;10.80;74.90
76878;DHT22;65843;50.692;12.844;2023-11-21T03:50:14;10.80;74.80
76878;DHT22;65843;50.692;12.844;2023-11-21T03:51:15;10.80;74.90
76878;DHT22;65843;50.692;12.844;2023-11-21T03:52:16;10.80;74.90
76878;DHT22;65843;50.692;12.844;2023-11-21T03:53:17;10.80;74.90
76878;DHT22;65843;50.692;12.844;2023-11-21T03:54:18;10.80;74.90
76878;DHT22;65843;50.692;12.844;2023-11-21T03:55:19;10.80;75.00
76878;DHT22;65843;50.692;12.844;2023-11-21T03:56:20;10.80;75.00
76878;DHT22;65843;50.692;12.844;2023-11-21T03:57:23;10.80;75.10
76878;DHT22;65843;50.692;12.844;2023-11-21T03:58:24;10.80;75.10
76878;DHT22;65843;50.692;12.844;2023-11-21T03:59:25;10.80;75.10
76878;DHT22;65843;50.692;12.844;2023-11-21T04:00:27;10.80;75.10
76878;DHT22;65843;50.692;12.844;2023-11-21T04:01:28;10.80;75.10
76878;DHT22;65843;50.692;12.844;2023-11-21T04:02:29;10.80;75.10
76878;DHT22;65843;50.692;12.844;2023-11-21T04:03:32;10.80;75.10
76878;DHT22;65843;50.692;12.844;2023-11-21T04:04:33;10.80;75.20
76878;DHT22;65843;50.692;12.844;2023-11-21T04:05:34;10.80;75.30
76878;DHT22;65843;50.692;12.844;2023-11-21T04:06:35;10.80;75.20
76878;DHT22;65843;50.692;12.844;2023-11-21T04:07:36;10.80;75.20
76878;DHT22;65843;50.692;12.844;2023-11-21T04:08:38;10.80;75.10
76878;DHT22;65843;50.692;12.844;2023-11-21T04:09:40;10.80;75.10
76878;DHT22;65843;50.692;12.844;2023-11-21T04:10:41;10.80;75.10
76878;DHT22;65843;50.692;12.844;2023-11-21T04:11:42;10.80;75.00
76878;DHT22;65843;50.692;12.844;2023-11-21T04:12:46;10.80;75.00
76878;DHT22;65843;50.692;12.844;2023-11-21T04:13:47;10.80;75.00
76878;DHT22;65843;50.692;12.844;2023-11-21T04:14:48;10.80;74.90
76878;DHT22;65843;50.692;12.844;2023-11-21T04:15:49;10.80;74.80
76878;DHT22;65843;50.692;12.844;2023-11-21T04:16:50;10.80;74.90
76878;DHT22;65843;50.692;12.844;2023-11-21T04:17:50;10.80;75.00
76878;DHT22;65843;50.692;12.844;2023-11-21T04:18:51;10.80;74.80
76878;DHT22;65843;50.692;12.844;2023-11-21T04:19:52;10.80;74.80
76878;DHT22;65843;50.692;12.844;2023-11-21T04:20:53;10.80;74.80
76878;DHT22;65843;50.692;12.844;2023-11-21T04:21:54;10.80;74.80
76878;DHT22;65843;50.692;12.844;2023-11-21T04:22:55;10.80;74.80
76878;DHT22;65843;50.692;12.844;2023-11-21T04:23:56;10.80;74.90
76878;DHT22;65843;50.692;12.844;2023-11-21T04:24:57;10.80;75.00
76878;DHT22;65843;50.692;12.844;2023-11-21T04:25:58;10.80;74.90
76878;DHT22;65843;50.692;12.844;2023-11-21T04:26:59;10.80;75.00
76878;DHT22;65843;50.692;12.844;2023-11-21T04:28:00;10.80;75.00
76878;DHT22;65843;50.692;12.844;2023-11-21T04:29:01;10.80;75.00
76878;DHT22;65843;50.692;12.844;2023-11-21T04:30:02;10.80;75.00
76878;DHT22;65843;50.692;12.844;2023-11-21T04:31:03;10.80;75.10
76878;DHT22;65843;50.692;12.844;2023-11-21T04:32:04;10.80;75.10
76878;DHT22;65843;50.692;12.844;2023-11-21T04:33:05;10.80;75.10
76878;DHT22;65843;50.692;12.844;2023-11-21T04:34:06;10.80;75.10
76878;DHT22;65843;50.692;12.844;2023-11-21T04:35:07;10.80;75.10
76878;DHT22;65843;50.692;12.844;2023-11-21T04:36:11;10.80;75.10
76878;DHT22;65843;50.692;12.844;2023-11-21T04:37:12;10.80;75.20
76878;DHT22;65843;50.692;12.844;2023-11-21T04:38:13;10.80;75.20
76878;DHT22;65843;50.692;12.844;2023-11-21T04:39:14;10.80;75.20
76878;DHT22;65843;50.692;12.844;2023-11-21T04:40:15;10.80;75.10
76878;DHT22;65843;50.692;12.844;2023-11-21T04:41:16;10.80;75.20
76878;DHT22;65843;50.692;12.844;2023-11-21T04:42:18;10.70;75.20
76878;DHT22;65843;50.692;12.844;2023-11-21T04:43:19;10.80;75.10
76878;DHT22;65843;50.692;12.844;2023-11-21T04:44:20;10.70;75.20
76878;DHT22;65843;50.692;12.844;2023-11-21T04:45:21;10.70;75.30
76878;DHT22;65843;50.692;12.844;2023-11-21T04:46:22;10.70;75.30
76878;DHT22;65843;50.692;12.844;2023-11-21T04:47:23;10.70;75.40
76878;DHT22;65843;50.692;12.844;2023-11-21T04:48:24;10.70;75.40
76878;DHT22;65843;50.692;12.844;2023-11-21T04:49:25;10.70;75.40
76878;DHT22;65843;50.692;12.844;2023-11-21T04:50:26;10.80;75.30
76878;DHT22;65843;50.692;12.844;2023-11-21T04:51:28;10.80;75.30
76878;DHT22;65843;50.692;12.844;2023-11-21T04:52:29;10.80;75.40
76878;DHT22;65843;50.692;12.844;2023-11-21T04:53:29;10.80;75.20
76878;DHT22;65843;50.692;12.844;2023-11-21T04:54:30;10.80;75.20
76878;DHT22;65843;50.692;12.844;2023-11-21T04:55:31;10.80;75.20
76878;DHT22;65843;50.692;12.844;2023-11-21T04:56:32;10.80;75.10
76878;DHT22;65843;50.692;12.844;2023-11-21T04:57:33;10.80;75.10
76878;DHT22;65843;50.692;12.844;2023-11-21T04:58:34;10.90;75.00
76878;DHT22;65843;50.692;12.844;2023-11-21T04:59:36;10.90;74.90
76878;DHT22;65843;50.692;12.844;2023-11-21T05:00:37;10.90;74.90
76878;DHT22;65843;50.692;12.844;2023-11-21T05:01:38;10.90;75.00
76878;DHT22;65843;50.692;12.844;2023-11-21T05:02:40;10.80;74.90
76878;DHT22;65843;50.692;12.844;2023-11-21T05:03:42;10.80;74.80
76878;DHT22;65843;50.692;12.844;2023-11-21T05:04:43;10.80;74.80
76878;DHT22;65843;50.692;12.844;2023-11-21T05:05:44;10.80;74.90
76878;DHT22;65843;50.692;12.844;2023-11-21T05:06:44;10.80;74.90
76878;DHT22;65843;50.692;12.844;2023-11-21T05:07:46;10.80;75.00
76878;DHT22;65843;50.692;12.844;2023-11-21T05:08:49;10.80;75.00
76878;DHT22;65843;50.692;12.844;2023-11-21T05:09:50;10.80;75.00
76878;DHT22;65843;50.692;12.844;2023-11-21T05:10:51;10.70;75.00
76878;DHT22;65843;50.692;12.844;2023-11-21T05:11:52;10.70;75.10
76878;DHT22;65843;50.692;12.844;2023-11-21T05:12:54;10.70;75.10
76878;DHT22;65843;50.692;12.844;2023-11-21T05:13:56;10.70;75.10
76878;DHT22;65843;50.692;12.844;2023-11-21T05:14:59;10.80;75.00
76878;DHT22;65843;50.692;12.844;2023-11-21T05:16:00;10.70;75.10
76878;DHT22;65843;50.692;12.844;2023-11-21T05:17:01;10.70;75.00
76878;DHT22;65843;50.692;12.844;2023-11-21T05:18:02;10.70;75.00
76878;DHT22;65843;50.692;12.844;2023-11-21T05:19:03;10.70;75.20
76878;DHT22;65843;50.692;12.844;2023-11-21T05:20:04;10.70;75.20
76878;DHT22;65843;50.692;12.844;2023-11-21T05:21:08;10.70;75.10
76878;DHT22;65843;50.692;12.844;2023-11-21T05:22:10;10.70;75.10
76878;DHT22;65843;50.692;12.844;2023-11-21T05:23:12;10.70;75.10
76878;DHT22;65843;50.692;12.844;2023-11-21T05:24:13;10.70;75.20
76878;DHT22;65843;50.692;12.844;2023-11-21T05:25:14;10.70;75.20
76878;DHT22;65843;50.692;12.844;2023-11-21T05:26:17;10.70;75.10
76878;DHT22;65843;50.692;12.844;2023-11-21T05:27:18;10.70;75.10
76878;DHT22;65843;50.692;12.844;2023-11-21T05:28:19;10.70;75.10
76878;DHT22;65843;50.692;12.844;2023-11-21T05:29:20;10.70;75.10
76878;DHT22;65843;50.692;12.844;2023-11-21T05:30:21;10.70;75.00
76878;DHT22;65843;50.692;12.844;2023-11-21T05:31:22;10.70;75.10
76878;DHT22;65843;50.692;12.844;2023-11-21T05:32:24;10.70;75.20
76878;DHT22;65843;50.692;12.844;2023-11-21T05:33:25;10.70;75.20
76878;DHT22;65843;50.692;12.844;2023-11-21T05:34:26;10.80;75.10
76878;DHT22;65843;50.692;12.844;2023-11-21T05:35:27;10.80;75.00
76878;DHT22;65843;50.692;12.844;2023-11-21T05:36:27;10.80;75.00
76878;DHT22;65843;50.692;12.844;2023-11-21T05:37:28;10.80;74.90
76878;DHT22;65843;50.692;12.844;2023-11-21T05:38:30;10.80;74.90
76878;DHT22;65843;50.692;12.844;2023-11-21T05:39:31;10.80;74.80
76878;DHT22;65843;50.692;12.844;2023-11-21T05:40:32;10.80;74.70
76878;DHT22;65843;50.692;12.844;2023-11-21T05:41:33;10.80;74.80
76878;DHT22;65843;50.692;12.844;2023-11-21T05:42:35;10.80;74.80
76878;DHT22;65843;50.692;12.844;2023-11-21T05:43:36;10.80;74.70
76878;DHT22;65843;50.692;12.844;2023-11-21T05:44:37;10.80;74.70
76878;DHT22;65843;50.692;12.844;2023-11-21T05:45:38;10.80;74.70
76878;DHT22;65843;50.692;12.844;2023-11-21T05:46:39;10.80;74.70
76878;DHT22;65843;50.692;12.844;2023-11-21T05:47:41;10.80;74.80
76878;DHT22;65843;50.692;12.844;2023-11-21T05:48:42;10.80;74.80
76878;DHT22;65843;50.692;12.844;2023-11-21T05:49:43;10.80;74.80
76878;DHT22;65843;50.692;12.844;2023-11-21T05:50:45;10.80;74.80
76878;DHT22;65843;50.692;12.844;2023-11-21T05:51:46;10.80;74.70
76878;DHT22;65843;50.692;12.844;2023-11-21T05:52:47;10.80;74.80
76878;DHT22;65843;50.692;12.844;2023-11-21T05:53:48;10.80;74.80
76878;DHT22;65843;50.692;12.844;2023-11-21T05:54:49;10.80;74.80
76878;DHT22;65843;50.692;12.844;2023-11-21T05:55:50;10.70;74.90
76878;DHT22;65843;50.692;12.844;2023-11-21T05:56:51;10.80;74.70
76878;DHT22;65843;50.692;12.844;2023-11-21T05:57:52;10.70;74.70
76878;DHT22;65843;50.692;12.844;2023-11-21T05:58:53;10.70;74.80
76878;DHT22;65843;50.692;12.844;2023-11-21T05:59:54;10.70;74.80
76878;DHT22;65843;50.692;12.844;2023-11-21T06:00:55;10.70;74.80
76878;DHT22;65843;50.692;12.844;2023-11-21T06:01:56;10.70;74.70
76878;DHT22;65843;50.692;12.844;2023-11-21T06:02:57;10.70;74.80
76878;DHT22;65843;50.692;12.844;2023-11-21T06:03:58;10.70;74.80
76878;DHT22;65843;50.692;12.844;2023-11-21T06:04:59;10.70;74.90
76878;DHT22;65843;50.692;12.844;2023-11-21T06:06:00;10.70;74.80
76878;DHT22;65843;50.692;12.844;2023-11-21T06:07:01;10.70;74.80
76878;DHT22;65843;50.692;12.844;2023-11-21T06:08:02;10.70;74.80
76878;DHT22;65843;50.692;12.844;2023-11-21T06:09:03;10.70;74.70
76878;DHT22;65843;50.692;12.844;2023-11-21T06:10:04;10.70;74.80
76878;DHT22;65843;50.692;12.844;2023-11-21T06:11:11;10.70;74.80
76878;DHT22;65843;50.692;12.844;2023-11-21T06:12:12;10.70;74.90
76878;DHT22;65843;50.692;12.844;2023-11-21T06:13:14;10.70;74.80
76878;DHT22;65843;50.692;12.844;2023-11-21T06:14:21;10.70;74.70
76878;DHT22;65843;50.692;12.844;2023-11-21T06:15:22;10.70;74.90
76878;DHT22;65843;50.692;12.844;2023-11-21T06:16:24;10.70;74.80
76878;DHT22;65843;50.692;12.844;2023-11-21T06:17:24;10.70;74.80
76878;DHT22;65843;50.692;12.844;2023-11-21T06:18:25;10.70;74.80
76878;DHT22;65843;50.692;12.844;2023-11-21T06:19:26;10.70;74.80
76878;DHT22;65843;50.692;12.844;2023-11-21T06:20:27;10.70;74.70